Sand Hill, Missouri
Current Conditions -  °F | °C
As of 8:55 AM on Thursday 23 Oct 2014 (Local Time) from KIRK Reporting Station
Clear Clear  
Wind Chill: 52°   Ceiling: Unl
Heat Index: 52°   Visibility: 10mi
Dew Point: 47°   Wind: 8mph
Humidity: 83%   Direction: 200°SSW
Pressure: 30.11"   Gusts: NA
Location:  40.3469°N, 92.1083°W
Report Text: KIRK 231355Z AUTO 20007KT 10SM CLR 11/08 A3011 RMK AO2 PRESRR SLP202 T01110083
Loading
Personal Weather Stations






























Interactive Weather Map
Tropical Storm Tracking
New forecast layout! Learn more

10-Day Weather Forecast

Advertisements
Track Severe Weather on mobile